sensor_id;sensor_type;location;lat;lon;timestamp;pressure;altitude;pressure_sealevel;temperature
16956;BMP180;8594;52.052;8.354;2022-07-29T00:00:29;100827.00;;;21.20
16956;BMP180;8594;52.052;8.354;2022-07-29T00:02:56;100827.00;;;21.20
16956;BMP180;8594;52.052;8.354;2022-07-29T00:05:23;100821.00;;;21.20
16956;BMP180;8594;52.052;8.354;2022-07-29T00:07:50;100813.00;;;21.20
16956;BMP180;8594;52.052;8.354;2022-07-29T00:10:17;100815.00;;;21.20
16956;BMP180;8594;52.052;8.354;2022-07-29T00:12:44;100803.00;;;20.90
16956;BMP180;8594;52.052;8.354;2022-07-29T00:15:13;100807.00;;;20.50
16956;BMP180;8594;52.052;8.354;2022-07-29T00:17:40;100800.00;;;20.70
16956;BMP180;8594;52.052;8.354;2022-07-29T00:20:08;100799.00;;;20.70
16956;BMP180;8594;52.052;8.354;2022-07-29T00:22:37;100793.00;;;20.80
16956;BMP180;8594;52.052;8.354;2022-07-29T00:25:06;100796.00;;;20.80
16956;BMP180;8594;52.052;8.354;2022-07-29T00:27:34;100788.00;;;20.90
16956;BMP180;8594;52.052;8.354;2022-07-29T00:30:02;100788.00;;;20.80
16956;BMP180;8594;52.052;8.354;2022-07-29T00:32:30;100780.00;;;21.20
16956;BMP180;8594;52.052;8.354;2022-07-29T00:34:57;100786.00;;;20.90
16956;BMP180;8594;52.052;8.354;2022-07-29T00:37:42;100778.00;;;21.00
16956;BMP180;8594;52.052;8.354;2022-07-29T00:40:10;100784.00;;;21.30
16956;BMP180;8594;52.052;8.354;2022-07-29T00:42:43;100782.00;;;21.20
16956;BMP180;8594;52.052;8.354;2022-07-29T00:45:12;100785.00;;;21.30
16956;BMP180;8594;52.052;8.354;2022-07-29T00:47:40;100784.00;;;21.20
16956;BMP180;8594;52.052;8.354;2022-07-29T00:50:10;100774.00;;;21.20
16956;BMP180;8594;52.052;8.354;2022-07-29T00:52:40;100773.00;;;20.80
16956;BMP180;8594;52.052;8.354;2022-07-29T00:55:10;100782.00;;;21.20
16956;BMP180;8594;52.052;8.354;2022-07-29T00:57:38;100776.00;;;21.30
16956;BMP180;8594;52.052;8.354;2022-07-29T01:00:08;100781.00;;;21.20
16956;BMP180;8594;52.052;8.354;2022-07-29T01:02:36;100780.00;;;21.20
16956;BMP180;8594;52.052;8.354;2022-07-29T01:05:06;100774.00;;;21.50
16956;BMP180;8594;52.052;8.354;2022-07-29T01:07:35;100777.00;;;21.60
16956;BMP180;8594;52.052;8.354;2022-07-29T01:10:04;100766.00;;;21.80
16956;BMP180;8594;52.052;8.354;2022-07-29T01:12:35;100766.00;;;22.00
16956;BMP180;8594;52.052;8.354;2022-07-29T01:15:06;100761.00;;;22.00
16956;BMP180;8594;52.052;8.354;2022-07-29T01:17:41;100759.00;;;22.00
16956;BMP180;8594;52.052;8.354;2022-07-29T01:20:27;100752.00;;;22.00
16956;BMP180;8594;52.052;8.354;2022-07-29T01:23:27;100752.00;;;22.00
16956;BMP180;8594;52.052;8.354;2022-07-29T01:26:36;100740.00;;;22.20
16956;BMP180;8594;52.052;8.354;2022-07-29T01:29:17;100728.00;;;22.30
16956;BMP180;8594;52.052;8.354;2022-07-29T01:31:56;100731.00;;;22.10
16956;BMP180;8594;52.052;8.354;2022-07-29T01:34:32;100737.00;;;22.10
16956;BMP180;8594;52.052;8.354;2022-07-29T01:37:08;100735.00;;;21.70
16956;BMP180;8594;52.052;8.354;2022-07-29T01:39:40;100736.00;;;22.00
16956;BMP180;8594;52.052;8.354;2022-07-29T01:42:19;100738.00;;;21.80
16956;BMP180;8594;52.052;8.354;2022-07-29T01:44:55;100727.00;;;21.90
16956;BMP180;8594;52.052;8.354;2022-07-29T01:47:30;100737.00;;;21.70
16956;BMP180;8594;52.052;8.354;2022-07-29T01:50:00;100731.00;;;21.90
16956;BMP180;8594;52.052;8.354;2022-07-29T01:52:37;100734.00;;;22.20
16956;BMP180;8594;52.052;8.354;2022-07-29T01:55:12;100719.00;;;22.30
16956;BMP180;8594;52.052;8.354;2022-07-29T01:57:42;100720.00;;;22.20
16956;BMP180;8594;52.052;8.354;2022-07-29T02:00:14;100712.00;;;21.90
16956;BMP180;8594;52.052;8.354;2022-07-29T02:02:46;100711.00;;;22.00
16956;BMP180;8594;52.052;8.354;2022-07-29T02:05:17;100707.00;;;22.20
16956;BMP180;8594;52.052;8.354;2022-07-29T02:07:47;100709.00;;;22.20
16956;BMP180;8594;52.052;8.354;2022-07-29T02:10:17;100704.00;;;22.20
16956;BMP180;8594;52.052;8.354;2022-07-29T02:12:47;100702.00;;;22.30
16956;BMP180;8594;52.052;8.354;2022-07-29T02:15:17;100709.00;;;22.30
16956;BMP180;8594;52.052;8.354;2022-07-29T02:17:51;100711.00;;;22.00
16956;BMP180;8594;52.052;8.354;2022-07-29T02:20:22;100711.00;;;22.10
16956;BMP180;8594;52.052;8.354;2022-07-29T02:22:52;100719.00;;;22.10
16956;BMP180;8594;52.052;8.354;2022-07-29T02:25:22;100717.00;;;22.00
16956;BMP180;8594;52.052;8.354;2022-07-29T02:27:51;100710.00;;;21.70
16956;BMP180;8594;52.052;8.354;2022-07-29T02:30:23;100703.00;;;21.70
16956;BMP180;8594;52.052;8.354;2022-07-29T02:32:51;100700.00;;;21.40
16956;BMP180;8594;52.052;8.354;2022-07-29T02:35:21;100692.00;;;21.30
16956;BMP180;8594;52.052;8.354;2022-07-29T02:37:49;100697.00;;;21.60
16956;BMP180;8594;52.052;8.354;2022-07-29T02:40:32;100694.00;;;21.50
16956;BMP180;8594;52.052;8.354;2022-07-29T02:43:01;100697.00;;;21.70
16956;BMP180;8594;52.052;8.354;2022-07-29T02:45:31;100698.00;;;21.80
16956;BMP180;8594;52.052;8.354;2022-07-29T02:48:05;100699.00;;;21.70
16956;BMP180;8594;52.052;8.354;2022-07-29T02:50:37;100704.00;;;21.70
16956;BMP180;8594;52.052;8.354;2022-07-29T02:53:12;100701.00;;;21.70
16956;BMP180;8594;52.052;8.354;2022-07-29T02:55:45;100699.00;;;21.70
16956;BMP180;8594;52.052;8.354;2022-07-29T02:58:21;100695.00;;;21.60
16956;BMP180;8594;52.052;8.354;2022-07-29T03:00:55;100699.00;;;21.30
16956;BMP180;8594;52.052;8.354;2022-07-29T03:03:29;100709.00;;;21.50
16956;BMP180;8594;52.052;8.354;2022-07-29T03:06:01;100710.00;;;21.60
16956;BMP180;8594;52.052;8.354;2022-07-29T03:08:30;100703.00;;;21.40
16956;BMP180;8594;52.052;8.354;2022-07-29T03:10:58;100698.00;;;21.20
16956;BMP180;8594;52.052;8.354;2022-07-29T03:13:27;100695.00;;;21.40
16956;BMP180;8594;52.052;8.354;2022-07-29T03:15:57;100703.00;;;21.60
16956;BMP180;8594;52.052;8.354;2022-07-29T03:18:24;100699.00;;;21.40
16956;BMP180;8594;52.052;8.354;2022-07-29T03:20:52;100691.00;;;21.20
16956;BMP180;8594;52.052;8.354;2022-07-29T03:23:19;100700.00;;;21.30
16956;BMP180;8594;52.052;8.354;2022-07-29T03:25:48;100703.00;;;21.40
16956;BMP180;8594;52.052;8.354;2022-07-29T03:28:15;100695.00;;;21.10
16956;BMP180;8594;52.052;8.354;2022-07-29T03:30:42;100711.00;;;21.40
16956;BMP180;8594;52.052;8.354;2022-07-29T03:33:10;100713.00;;;21.40
16956;BMP180;8594;52.052;8.354;2022-07-29T03:35:38;100710.00;;;21.20
16956;BMP180;8594;52.052;8.354;2022-07-29T03:38:05;100706.00;;;21.40
16956;BMP180;8594;52.052;8.354;2022-07-29T03:40:37;100704.00;;;21.20
16956;BMP180;8594;52.052;8.354;2022-07-29T03:43:09;100702.00;;;21.40
16956;BMP180;8594;52.052;8.354;2022-07-29T03:45:38;100699.00;;;21.50
16956;BMP180;8594;52.052;8.354;2022-07-29T03:48:10;100694.00;;;21.50
16956;BMP180;8594;52.052;8.354;2022-07-29T03:50:37;100697.00;;;21.50
16956;BMP180;8594;52.052;8.354;2022-07-29T03:53:05;100698.00;;;21.30
16956;BMP180;8594;52.052;8.354;2022-07-29T03:55:37;100692.00;;;21.40
16956;BMP180;8594;52.052;8.354;2022-07-29T03:58:07;100693.00;;;21.20
16956;BMP180;8594;52.052;8.354;2022-07-29T04:00:35;100697.00;;;21.00
16956;BMP180;8594;52.052;8.354;2022-07-29T04:03:04;100689.00;;;21.40
16956;BMP180;8594;52.052;8.354;2022-07-29T04:05:32;100698.00;;;21.30
16956;BMP180;8594;52.052;8.354;2022-07-29T04:07:59;100690.00;;;21.20
16956;BMP180;8594;52.052;8.354;2022-07-29T04:10:26;100695.00;;;21.10
16956;BMP180;8594;52.052;8.354;2022-07-29T04:12:53;100691.00;;;21.20
16956;BMP180;8594;52.052;8.354;2022-07-29T04:15:20;100692.00;;;21.10
16956;BMP180;8594;52.052;8.354;2022-07-29T04:17:46;100686.00;;;21.20
16956;BMP180;8594;52.052;8.354;2022-07-29T04:20:13;100695.00;;;20.90
16956;BMP180;8594;52.052;8.354;2022-07-29T04:22:42;100689.00;;;21.10
16956;BMP180;8594;52.052;8.354;2022-07-29T04:25:09;100688.00;;;20.90
16956;BMP180;8594;52.052;8.354;2022-07-29T04:27:36;100692.00;;;21.00
16956;BMP180;8594;52.052;8.354;2022-07-29T04:30:22;100694.00;;;21.10
16956;BMP180;8594;52.052;8.354;2022-07-29T04:32:49;100697.00;;;21.10
16956;BMP180;8594;52.052;8.354;2022-07-29T04:35:16;100702.00;;;21.10
16956;BMP180;8594;52.052;8.354;2022-07-29T04:37:44;100698.00;;;21.40
16956;BMP180;8594;52.052;8.354;2022-07-29T04:40:11;100696.00;;;21.40
16956;BMP180;8594;52.052;8.354;2022-07-29T04:42:38;100697.00;;;21.50
16956;BMP180;8594;52.052;8.354;2022-07-29T04:45:06;100702.00;;;21.40
16956;BMP180;8594;52.052;8.354;2022-07-29T04:47:33;100697.00;;;21.50
16956;BMP180;8594;52.052;8.354;2022-07-29T04:50:00;100691.00;;;21.10
16956;BMP180;8594;52.052;8.354;2022-07-29T04:52:27;100690.00;;;21.50
16956;BMP180;8594;52.052;8.354;2022-07-29T04:54:55;100690.00;;;21.80
16956;BMP180;8594;52.052;8.354;2022-07-29T04:57:22;100681.00;;;21.70
16956;BMP180;8594;52.052;8.354;2022-07-29T04:59:49;100686.00;;;21.90
16956;BMP180;8594;52.052;8.354;2022-07-29T05:02:16;100686.00;;;21.80
16956;BMP180;8594;52.052;8.354;2022-07-29T05:04:43;100697.00;;;21.90
16956;BMP180;8594;52.052;8.354;2022-07-29T05:07:09;100690.00;;;22.00
16956;BMP180;8594;52.052;8.354;2022-07-29T05:09:36;100697.00;;;22.00
16956;BMP180;8594;52.052;8.354;2022-07-29T05:12:06;100696.00;;;22.50
16956;BMP180;8594;52.052;8.354;2022-07-29T05:14:33;100701.00;;;22.20
16956;BMP180;8594;52.052;8.354;2022-07-29T05:17:00;100704.00;;;21.90
16956;BMP180;8594;52.052;8.354;2022-07-29T05:19:27;100698.00;;;22.20
16956;BMP180;8594;52.052;8.354;2022-07-29T05:21:54;100688.00;;;22.40
16956;BMP180;8594;52.052;8.354;2022-07-29T05:24:20;100688.00;;;22.40
16956;BMP180;8594;52.052;8.354;2022-07-29T05:26:47;100688.00;;;22.30
16956;BMP180;8594;52.052;8.354;2022-07-29T05:29:15;100684.00;;;22.30
16956;BMP180;8594;52.052;8.354;2022-07-29T05:31:42;100683.00;;;22.40
16956;BMP180;8594;52.052;8.354;2022-07-29T05:34:09;100676.00;;;22.20
16956;BMP180;8594;52.052;8.354;2022-07-29T05:36:36;100679.00;;;22.30
16956;BMP180;8594;52.052;8.354;2022-07-29T05:39:03;100678.00;;;22.30
16956;BMP180;8594;52.052;8.354;2022-07-29T05:41:31;100683.00;;;22.50
16956;BMP180;8594;52.052;8.354;2022-07-29T05:43:58;100688.00;;;22.40
16956;BMP180;8594;52.052;8.354;2022-07-29T05:46:26;100681.00;;;22.40
16956;BMP180;8594;52.052;8.354;2022-07-29T05:48:53;100697.00;;;22.30
16956;BMP180;8594;52.052;8.354;2022-07-29T05:51:20;100688.00;;;22.20
16956;BMP180;8594;52.052;8.354;2022-07-29T05:53:47;100689.00;;;22.00
16956;BMP180;8594;52.052;8.354;2022-07-29T05:56:14;100696.00;;;21.80
16956;BMP180;8594;52.052;8.354;2022-07-29T05:58:41;100694.00;;;21.80
16956;BMP180;8594;52.052;8.354;2022-07-29T06:01:08;100687.00;;;21.80
16956;BMP180;8594;52.052;8.354;2022-07-29T06:03:36;100689.00;;;21.90
16956;BMP180;8594;52.052;8.354;2022-07-29T06:06:04;100690.00;;;22.10
16956;BMP180;8594;52.052;8.354;2022-07-29T06:08:32;100701.00;;;22.00
16956;BMP180;8594;52.052;8.354;2022-07-29T06:11:00;100694.00;;;22.10
16956;BMP180;8594;52.052;8.354;2022-07-29T06:13:27;100707.00;;;21.80
16956;BMP180;8594;52.052;8.354;2022-07-29T06:15:54;100703.00;;;21.90
16956;BMP180;8594;52.052;8.354;2022-07-29T06:18:21;100704.00;;;21.90
16956;BMP180;8594;52.052;8.354;2022-07-29T06:20:50;100716.00;;;22.20
16956;BMP180;8594;52.052;8.354;2022-07-29T06:23:18;100704.00;;;21.60
16956;BMP180;8594;52.052;8.354;2022-07-29T06:25:45;100711.00;;;21.80
16956;BMP180;8594;52.052;8.354;2022-07-29T06:28:12;100712.00;;;22.20
16956;BMP180;8594;52.052;8.354;2022-07-29T06:30:39;100724.00;;;22.20
16956;BMP180;8594;52.052;8.354;2022-07-29T06:33:06;100726.00;;;22.10
16956;BMP180;8594;52.052;8.354;2022-07-29T06:35:34;100724.00;;;22.50
16956;BMP180;8594;52.052;8.354;2022-07-29T06:38:03;100723.00;;;22.70
16956;BMP180;8594;52.052;8.354;2022-07-29T06:40:30;100724.00;;;23.10
16956;BMP180;8594;52.052;8.354;2022-07-29T06:43:14;100724.00;;;23.20
16956;BMP180;8594;52.052;8.354;2022-07-29T06:45:41;100729.00;;;23.40
16956;BMP180;8594;52.052;8.354;2022-07-29T06:48:08;100727.00;;;23.20
16956;BMP180;8594;52.052;8.354;2022-07-29T06:50:35;100724.00;;;23.20
16956;BMP180;8594;52.052;8.354;2022-07-29T06:53:03;100727.00;;;22.80
16956;BMP180;8594;52.052;8.354;2022-07-29T06:55:30;100717.00;;;23.30
16956;BMP180;8594;52.052;8.354;2022-07-29T06:57:58;100715.00;;;23.00
16956;BMP180;8594;52.052;8.354;2022-07-29T07:00:25;100715.00;;;23.30
16956;BMP180;8594;52.052;8.354;2022-07-29T07:02:52;100707.00;;;23.70
16956;BMP180;8594;52.052;8.354;2022-07-29T07:05:18;100715.00;;;23.60
16956;BMP180;8594;52.052;8.354;2022-07-29T07:07:45;100702.00;;;24.70
16956;BMP180;8594;52.052;8.354;2022-07-29T07:10:13;100709.00;;;25.20
16956;BMP180;8594;52.052;8.354;2022-07-29T07:12:40;100715.00;;;25.00
16956;BMP180;8594;52.052;8.354;2022-07-29T07:15:08;100718.00;;;25.40
16956;BMP180;8594;52.052;8.354;2022-07-29T07:17:35;100721.00;;;25.60
16956;BMP180;8594;52.052;8.354;2022-07-29T07:20:04;100718.00;;;25.40
16956;BMP180;8594;52.052;8.354;2022-07-29T07:22:32;100718.00;;;25.60
16956;BMP180;8594;52.052;8.354;2022-07-29T07:24:58;100721.00;;;25.40
16956;BMP180;8594;52.052;8.354;2022-07-29T07:27:26;100719.00;;;25.90
16956;BMP180;8594;52.052;8.354;2022-07-29T07:29:53;100726.00;;;25.50
16956;BMP180;8594;52.052;8.354;2022-07-29T07:32:20;100721.00;;;25.30
16956;BMP180;8594;52.052;8.354;2022-07-29T07:34:47;100726.00;;;25.10
16956;BMP180;8594;52.052;8.354;2022-07-29T07:37:14;100727.00;;;25.50
16956;BMP180;8594;52.052;8.354;2022-07-29T07:39:41;100729.00;;;24.50
16956;BMP180;8594;52.052;8.354;2022-07-29T07:42:09;100731.00;;;24.40
16956;BMP180;8594;52.052;8.354;2022-07-29T07:44:39;100737.00;;;24.60
16956;BMP180;8594;52.052;8.354;2022-07-29T07:47:06;100731.00;;;24.80
16956;BMP180;8594;52.052;8.354;2022-07-29T07:49:33;100741.00;;;25.00
16956;BMP180;8594;52.052;8.354;2022-07-29T07:52:00;100731.00;;;25.30
16956;BMP180;8594;52.052;8.354;2022-07-29T07:54:27;100736.00;;;25.30
16956;BMP180;8594;52.052;8.354;2022-07-29T07:56:53;100729.00;;;25.00
16956;BMP180;8594;52.052;8.354;2022-07-29T07:59:20;100722.00;;;25.00
16956;BMP180;8594;52.052;8.354;2022-07-29T08:01:49;100737.00;;;24.80
16956;BMP180;8594;52.052;8.354;2022-07-29T08:04:16;100738.00;;;24.20
16956;BMP180;8594;52.052;8.354;2022-07-29T08:06:43;100743.00;;;24.40
16956;BMP180;8594;52.052;8.354;2022-07-29T08:09:10;100738.00;;;24.40
16956;BMP180;8594;52.052;8.354;2022-07-29T08:11:37;100737.00;;;24.70
16956;BMP180;8594;52.052;8.354;2022-07-29T08:14:03;100736.00;;;24.70
16956;BMP180;8594;52.052;8.354;2022-07-29T08:16:30;100745.00;;;24.60
16956;BMP180;8594;52.052;8.354;2022-07-29T08:18:59;100746.00;;;24.80
16956;BMP180;8594;52.052;8.354;2022-07-29T08:21:25;100737.00;;;25.40
16956;BMP180;8594;52.052;8.354;2022-07-29T08:23:52;100737.00;;;26.30
16956;BMP180;8594;52.052;8.354;2022-07-29T08:26:40;100748.00;;;26.30
16956;BMP180;8594;52.052;8.354;2022-07-29T08:29:07;100742.00;;;26.20
16956;BMP180;8594;52.052;8.354;2022-07-29T08:31:34;100738.00;;;26.50
16956;BMP180;8594;52.052;8.354;2022-07-29T08:34:02;100740.00;;;27.30
16956;BMP180;8594;52.052;8.354;2022-07-29T08:36:29;100733.00;;;27.90
16956;BMP180;8594;52.052;8.354;2022-07-29T08:38:57;100737.00;;;27.60
16956;BMP180;8594;52.052;8.354;2022-07-29T08:41:24;100735.00;;;28.10
16956;BMP180;8594;52.052;8.354;2022-07-29T08:43:51;100733.00;;;28.60
16956;BMP180;8594;52.052;8.354;2022-07-29T08:46:19;100739.00;;;28.10
16956;BMP180;8594;52.052;8.354;2022-07-29T08:48:47;100730.00;;;29.10
16956;BMP180;8594;52.052;8.354;2022-07-29T08:51:17;100733.00;;;28.80
16956;BMP180;8594;52.052;8.354;2022-07-29T08:53:49;100743.00;;;28.90
16956;BMP180;8594;52.052;8.354;2022-07-29T08:56:17;100741.00;;;29.00
16956;BMP180;8594;52.052;8.354;2022-07-29T08:58:46;100741.00;;;28.00
16956;BMP180;8594;52.052;8.354;2022-07-29T09:01:17;100737.00;;;28.00
16956;BMP180;8594;52.052;8.354;2022-07-29T09:03:48;100735.00;;;27.80
16956;BMP180;8594;52.052;8.354;2022-07-29T09:06:21;100734.00;;;27.90
16956;BMP180;8594;52.052;8.354;2022-07-29T09:08:48;100736.00;;;27.50
16956;BMP180;8594;52.052;8.354;2022-07-29T09:11:15;100736.00;;;27.60
16956;BMP180;8594;52.052;8.354;2022-07-29T09:14:17;100737.00;;;27.30
16956;BMP180;8594;52.052;8.354;2022-07-29T09:17:03;100737.00;;;27.10
16956;BMP180;8594;52.052;8.354;2022-07-29T09:19:32;100721.00;;;27.20
16956;BMP180;8594;52.052;8.354;2022-07-29T09:22:04;100725.00;;;27.80
16956;BMP180;8594;52.052;8.354;2022-07-29T09:24:41;100724.00;;;28.00
16956;BMP180;8594;52.052;8.354;2022-07-29T09:27:17;100728.00;;;27.70
16956;BMP180;8594;52.052;8.354;2022-07-29T09:29:45;100716.00;;;27.80
16956;BMP180;8594;52.052;8.354;2022-07-29T09:32:12;100722.00;;;27.60
16956;BMP180;8594;52.052;8.354;2022-07-29T09:34:39;100710.00;;;27.70
16956;BMP180;8594;52.052;8.354;2022-07-29T09:37:08;100706.00;;;28.30
16956;BMP180;8594;52.052;8.354;2022-07-29T09:39:38;100707.00;;;28.10
16956;BMP180;8594;52.052;8.354;2022-07-29T09:42:12;100714.00;;;28.10
16956;BMP180;8594;52.052;8.354;2022-07-29T09:44:47;100720.00;;;27.30
16956;BMP180;8594;52.052;8.354;2022-07-29T09:47:18;100720.00;;;27.20
16956;BMP180;8594;52.052;8.354;2022-07-29T09:49:53;100711.00;;;27.10
16956;BMP180;8594;52.052;8.354;2022-07-29T09:52:22;100716.00;;;27.00
16956;BMP180;8594;52.052;8.354;2022-07-29T09:54:48;100717.00;;;27.20
16956;BMP180;8594;52.052;8.354;2022-07-29T09:57:25;100716.00;;;27.40
16956;BMP180;8594;52.052;8.354;2022-07-29T10:00:05;100720.00;;;27.20
16956;BMP180;8594;52.052;8.354;2022-07-29T10:02:35;100726.00;;;27.30
16956;BMP180;8594;52.052;8.354;2022-07-29T10:05:06;100719.00;;;27.50
16956;BMP180;8594;52.052;8.354;2022-07-29T10:07:49;100708.00;;;27.80
16956;BMP180;8594;52.052;8.354;2022-07-29T10:10:22;100710.00;;;28.10
16956;BMP180;8594;52.052;8.354;2022-07-29T10:12:53;100707.00;;;28.00
16956;BMP180;8594;52.052;8.354;2022-07-29T10:15:23;100717.00;;;28.10
16956;BMP180;8594;52.052;8.354;2022-07-29T10:17:52;100703.00;;;28.30
16956;BMP180;8594;52.052;8.354;2022-07-29T10:20:20;100725.00;;;28.10
16956;BMP180;8594;52.052;8.354;2022-07-29T10:22:50;100710.00;;;28.20
16956;BMP180;8594;52.052;8.354;2022-07-29T10:25:18;100712.00;;;28.30
16956;BMP180;8594;52.052;8.354;2022-07-29T10:27:47;100708.00;;;28.60
16956;BMP180;8594;52.052;8.354;2022-07-29T10:30:18;100707.00;;;28.60
16956;BMP180;8594;52.052;8.354;2022-07-29T10:33:24;100701.00;;;28.40
16956;BMP180;8594;52.052;8.354;2022-07-29T10:36:07;100699.00;;;28.90
16956;BMP180;8594;52.052;8.354;2022-07-29T10:38:55;100695.00;;;28.40
16956;BMP180;8594;52.052;8.354;2022-07-29T10:41:43;100709.00;;;28.30
16956;BMP180;8594;52.052;8.354;2022-07-29T10:44:18;100702.00;;;28.20
16956;BMP180;8594;52.052;8.354;2022-07-29T10:46:46;100705.00;;;28.40
16956;BMP180;8594;52.052;8.354;2022-07-29T10:49:15;100703.00;;;28.40
16956;BMP180;8594;52.052;8.354;2022-07-29T10:51:57;100697.00;;;28.30
16956;BMP180;8594;52.052;8.354;2022-07-29T10:54:46;100698.00;;;28.30
16956;BMP180;8594;52.052;8.354;2022-07-29T10:57:23;100692.00;;;28.00
16956;BMP180;8594;52.052;8.354;2022-07-29T11:00:29;100688.00;;;27.80
16956;BMP180;8594;52.052;8.354;2022-07-29T11:02:57;100702.00;;;27.50
16956;BMP180;8594;52.052;8.354;2022-07-29T11:05:24;100695.00;;;28.00
16956;BMP180;8594;52.052;8.354;2022-07-29T11:08:21;100694.00;;;28.00
16956;BMP180;8594;52.052;8.354;2022-07-29T11:10:53;100687.00;;;28.30
16956;BMP180;8594;52.052;8.354;2022-07-29T11:13:50;100700.00;;;28.40
16956;BMP180;8594;52.052;8.354;2022-07-29T11:16:19;100696.00;;;28.30
16956;BMP180;8594;52.052;8.354;2022-07-29T11:19:21;100697.00;;;28.50
16956;BMP180;8594;52.052;8.354;2022-07-29T11:21:50;100692.00;;;28.60
16956;BMP180;8594;52.052;8.354;2022-07-29T11:24:21;100693.00;;;29.10
16956;BMP180;8594;52.052;8.354;2022-07-29T11:27:14;100697.00;;;29.20
16956;BMP180;8594;52.052;8.354;2022-07-29T11:29:51;100695.00;;;28.50
16956;BMP180;8594;52.052;8.354;2022-07-29T11:32:19;100696.00;;;28.50
16956;BMP180;8594;52.052;8.354;2022-07-29T11:34:48;100693.00;;;28.50
16956;BMP180;8594;52.052;8.354;2022-07-29T11:37:21;100692.00;;;28.50
16956;BMP180;8594;52.052;8.354;2022-07-29T11:40:24;100692.00;;;28.10
16956;BMP180;8594;52.052;8.354;2022-07-29T11:42:52;100689.00;;;28.70
16956;BMP180;8594;52.052;8.354;2022-07-29T11:45:25;100695.00;;;28.80
16956;BMP180;8594;52.052;8.354;2022-07-29T11:47:59;100697.00;;;29.20
16956;BMP180;8594;52.052;8.354;2022-07-29T11:50:34;100705.00;;;29.50
16956;BMP180;8594;52.052;8.354;2022-07-29T11:53:10;100701.00;;;29.40
16956;BMP180;8594;52.052;8.354;2022-07-29T11:55:39;100693.00;;;29.80
16956;BMP180;8594;52.052;8.354;2022-07-29T11:58:08;100693.00;;;30.00
16956;BMP180;8594;52.052;8.354;2022-07-29T12:00:37;100697.00;;;29.70
16956;BMP180;8594;52.052;8.354;2022-07-29T12:03:07;100686.00;;;30.00
16956;BMP180;8594;52.052;8.354;2022-07-29T12:05:39;100688.00;;;30.10
16956;BMP180;8594;52.052;8.354;2022-07-29T12:08:15;100687.00;;;30.10
16956;BMP180;8594;52.052;8.354;2022-07-29T12:10:45;100678.00;;;29.90
16956;BMP180;8594;52.052;8.354;2022-07-29T12:13:15;100682.00;;;30.30
16956;BMP180;8594;52.052;8.354;2022-07-29T12:15:51;100685.00;;;30.30
16956;BMP180;8594;52.052;8.354;2022-07-29T12:18:20;100686.00;;;30.40
16956;BMP180;8594;52.052;8.354;2022-07-29T12:20:48;100682.00;;;30.30
16956;BMP180;8594;52.052;8.354;2022-07-29T12:23:15;100685.00;;;30.10
16956;BMP180;8594;52.052;8.354;2022-07-29T12:25:44;100681.00;;;30.10
16956;BMP180;8594;52.052;8.354;2022-07-29T12:28:14;100673.00;;;29.90
16956;BMP180;8594;52.052;8.354;2022-07-29T12:30:46;100682.00;;;29.70
16956;BMP180;8594;52.052;8.354;2022-07-29T12:33:26;100679.00;;;29.60
16956;BMP180;8594;52.052;8.354;2022-07-29T12:35:57;100678.00;;;30.20
16956;BMP180;8594;52.052;8.354;2022-07-29T12:38:24;100677.00;;;29.80
16956;BMP180;8594;52.052;8.354;2022-07-29T12:40:53;100686.00;;;29.60
16956;BMP180;8594;52.052;8.354;2022-07-29T12:43:24;100673.00;;;29.70
16956;BMP180;8594;52.052;8.354;2022-07-29T12:45:54;100676.00;;;30.00
16956;BMP180;8594;52.052;8.354;2022-07-29T12:48:33;100674.00;;;29.80
16956;BMP180;8594;52.052;8.354;2022-07-29T12:51:02;100674.00;;;30.00
16956;BMP180;8594;52.052;8.354;2022-07-29T12:53:30;100677.00;;;29.50
16956;BMP180;8594;52.052;8.354;2022-07-29T12:55:58;100676.00;;;29.30
16956;BMP180;8594;52.052;8.354;2022-07-29T12:58:34;100676.00;;;29.50
16956;BMP180;8594;52.052;8.354;2022-07-29T13:01:06;100683.00;;;29.00
16956;BMP180;8594;52.052;8.354;2022-07-29T13:03:48;100679.00;;;29.00
16956;BMP180;8594;52.052;8.354;2022-07-29T13:06:33;100676.00;;;28.70
16956;BMP180;8594;52.052;8.354;2022-07-29T13:09:07;100676.00;;;28.70
16956;BMP180;8594;52.052;8.354;2022-07-29T13:11:37;100677.00;;;28.70
16956;BMP180;8594;52.052;8.354;2022-07-29T13:14:07;100675.00;;;29.00
16956;BMP180;8594;52.052;8.354;2022-07-29T13:16:35;100678.00;;;28.90
16956;BMP180;8594;52.052;8.354;2022-07-29T13:19:05;100684.00;;;29.10
16956;BMP180;8594;52.052;8.354;2022-07-29T13:21:33;100681.00;;;28.60
16956;BMP180;8594;52.052;8.354;2022-07-29T13:24:00;100679.00;;;28.70
16956;BMP180;8594;52.052;8.354;2022-07-29T13:26:27;100675.00;;;28.50
16956;BMP180;8594;52.052;8.354;2022-07-29T13:28:54;100675.00;;;28.50
16956;BMP180;8594;52.052;8.354;2022-07-29T13:31:23;100676.00;;;28.70
16956;BMP180;8594;52.052;8.354;2022-07-29T13:33:50;100677.00;;;29.00
16956;BMP180;8594;52.052;8.354;2022-07-29T13:36:17;100687.00;;;29.20
16956;BMP180;8594;52.052;8.354;2022-07-29T13:38:44;100680.00;;;28.80
16956;BMP180;8594;52.052;8.354;2022-07-29T13:41:11;100686.00;;;28.60
16956;BMP180;8594;52.052;8.354;2022-07-29T13:43:38;100683.00;;;29.00
16956;BMP180;8594;52.052;8.354;2022-07-29T13:46:05;100683.00;;;28.60
16956;BMP180;8594;52.052;8.354;2022-07-29T13:48:33;100677.00;;;28.80
16956;BMP180;8594;52.052;8.354;2022-07-29T13:51:00;100674.00;;;28.80
16956;BMP180;8594;52.052;8.354;2022-07-29T13:53:27;100667.00;;;28.70
16956;BMP180;8594;52.052;8.354;2022-07-29T13:55:54;100669.00;;;28.90
16956;BMP180;8594;52.052;8.354;2022-07-29T13:58:21;100657.00;;;29.10
16956;BMP180;8594;52.052;8.354;2022-07-29T14:00:48;100666.00;;;29.10
16956;BMP180;8594;52.052;8.354;2022-07-29T14:03:15;100667.00;;;29.30
16956;BMP180;8594;52.052;8.354;2022-07-29T14:05:44;100669.00;;;29.20
16956;BMP180;8594;52.052;8.354;2022-07-29T14:08:11;100671.00;;;29.10
16956;BMP180;8594;52.052;8.354;2022-07-29T14:10:38;100671.00;;;29.00
16956;BMP180;8594;52.052;8.354;2022-07-29T14:13:04;100679.00;;;28.90
16956;BMP180;8594;52.052;8.354;2022-07-29T14:15:31;100671.00;;;28.50
16956;BMP180;8594;52.052;8.354;2022-07-29T14:17:58;100669.00;;;28.50
16956;BMP180;8594;52.052;8.354;2022-07-29T14:20:25;100679.00;;;28.50
16956;BMP180;8594;52.052;8.354;2022-07-29T14:22:55;100671.00;;;28.80
16956;BMP180;8594;52.052;8.354;2022-07-29T14:25:23;100672.00;;;28.80
16956;BMP180;8594;52.052;8.354;2022-07-29T14:27:50;100674.00;;;28.60